createdAt,value
2024-02-14T00:00:52.701Z,100.00
2024-02-14T00:03:19.922Z,100.00
2024-02-14T00:05:46.647Z,100.00
2024-02-14T00:08:16.023Z,100.00
2024-02-14T00:10:44.670Z,100.00
2024-02-14T00:13:11.996Z,100.00
2024-02-14T00:15:38.754Z,100.00
2024-02-14T00:18:05.866Z,100.00
2024-02-14T00:20:33.724Z,100.00
2024-02-14T00:23:00.524Z,100.00
2024-02-14T00:25:27.193Z,100.00
2024-02-14T00:27:55.345Z,100.00
2024-02-14T00:30:24.248Z,100.00
2024-02-14T00:32:51.613Z,100.00
2024-02-14T00:35:18.515Z,100.00
2024-02-14T00:37:45.294Z,100.00
2024-02-14T00:40:12.644Z,100.00
2024-02-14T00:42:39.335Z,100.00
2024-02-14T00:45:09.122Z,100.00
2024-02-14T00:47:36.449Z,100.00
2024-02-14T00:50:04.068Z,100.00
2024-02-14T00:52:30.955Z,100.00
2024-02-14T00:54:58.397Z,100.00
2024-02-14T00:57:28.016Z,100.00
2024-02-14T00:59:54.756Z,100.00
2024-02-14T01:02:22.509Z,100.00
2024-02-14T01:04:49.254Z,100.00
2024-02-14T01:07:15.926Z,100.00
2024-02-14T01:09:42.720Z,100.00
2024-02-14T01:12:09.532Z,100.00
2024-02-14T01:14:36.324Z,100.00
2024-02-14T01:17:04.899Z,100.00
2024-02-14T01:19:31.781Z,100.00
2024-02-14T01:21:58.451Z,100.00
2024-02-14T01:24:28.059Z,100.00
2024-02-14T01:26:56.340Z,100.00
2024-02-14T01:29:24.429Z,100.00
2024-02-14T01:31:51.528Z,100.00
2024-02-14T01:34:18.677Z,100.00
2024-02-14T01:36:45.722Z,100.00
2024-02-14T01:39:12.609Z,100.00
2024-02-14T01:41:39.870Z,100.00
2024-02-14T01:44:06.622Z,100.00
2024-02-14T01:46:33.399Z,100.00
2024-02-14T01:49:00.454Z,100.00
2024-02-14T01:51:27.375Z,100.00
2024-02-14T01:53:54.249Z,100.00
2024-02-14T01:56:21.023Z,100.00
2024-02-14T01:58:47.716Z,100.00
2024-02-14T02:01:14.486Z,100.00
2024-02-14T02:03:41.234Z,100.00
2024-02-14T02:06:08.260Z,100.00
2024-02-14T02:08:35.181Z,100.00
2024-02-14T02:11:01.889Z,100.00
2024-02-14T02:13:28.702Z,100.00
2024-02-14T02:15:55.416Z,100.00
2024-02-14T02:18:22.434Z,100.00
2024-02-14T02:20:49.468Z,100.00
2024-02-14T02:23:16.375Z,100.00
2024-02-14T02:25:43.722Z,100.00
2024-02-14T02:28:10.583Z,100.00
2024-02-14T02:30:37.740Z,100.00
2024-02-14T02:33:05.588Z,100.00
2024-02-14T02:35:32.375Z,100.00
2024-02-14T02:37:59.190Z,100.00
2024-02-14T02:40:26.264Z,100.00
2024-02-14T02:42:53.016Z,100.00
2024-02-14T02:45:19.843Z,100.00
2024-02-14T02:47:46.632Z,100.00
2024-02-14T02:50:13.438Z,100.00
2024-02-14T02:52:43.107Z,100.00
2024-02-14T02:55:10.077Z,100.00
2024-02-14T02:57:38.156Z,100.00
2024-02-14T03:00:06.214Z,100.00
2024-02-14T03:02:33.074Z,100.00
2024-02-14T03:05:00.209Z,100.00
2024-02-14T03:07:27.857Z,100.00
2024-02-14T03:09:54.499Z,100.00
2024-02-14T03:12:22.757Z,100.00
2024-02-14T03:14:50.793Z,100.00
2024-02-14T03:17:17.995Z,100.00
2024-02-14T03:19:44.782Z,100.00
2024-02-14T03:22:11.614Z,100.00
2024-02-14T03:24:38.884Z,100.00
2024-02-14T03:27:06.608Z,100.00
2024-02-14T03:29:33.669Z,100.00
2024-02-14T03:32:05.314Z,100.00
2024-02-14T03:34:34.988Z,100.00
2024-02-14T03:37:03.377Z,100.00
2024-02-14T03:39:30.855Z,100.00
2024-02-14T03:41:57.684Z,100.00
2024-02-14T03:44:24.473Z,100.00
2024-02-14T03:46:51.300Z,100.00
2024-02-14T03:49:18.412Z,100.00
2024-02-14T03:51:45.253Z,100.00
2024-02-14T03:54:13.213Z,100.00
2024-02-14T03:56:40.052Z,100.00
2024-02-14T03:59:07.257Z,100.00
2024-02-14T04:01:34.302Z,100.00
2024-02-14T04:04:01.128Z,100.00
2024-02-14T04:06:28.360Z,100.00
2024-02-14T04:08:55.289Z,100.00
2024-02-14T04:11:22.091Z,100.00
2024-02-14T04:13:48.743Z,100.00
2024-02-14T04:16:15.360Z,100.00
2024-02-14T04:18:43.965Z,100.00
2024-02-14T04:21:11.226Z,100.00
2024-02-14T04:23:38.203Z,100.00
2024-02-14T04:26:05.090Z,100.00
2024-02-14T04:28:31.726Z,100.00
2024-02-14T04:30:59.007Z,100.00
2024-02-14T04:33:26.824Z,100.00
2024-02-14T04:35:53.613Z,100.00
2024-02-14T04:38:20.975Z,100.00
2024-02-14T04:40:47.863Z,100.00
2024-02-14T04:43:14.623Z,100.00
2024-02-14T04:45:41.404Z,100.00
2024-02-14T04:48:09.060Z,100.00
2024-02-14T04:50:36.113Z,100.00
2024-02-14T04:53:02.851Z,100.00
2024-02-14T04:55:30.487Z,100.00
2024-02-14T04:57:57.248Z,100.00
2024-02-14T05:00:25.160Z,100.00
2024-02-14T05:02:52.243Z,100.00
2024-02-14T05:05:21.542Z,100.00
2024-02-14T05:07:48.441Z,100.00
2024-02-14T05:10:15.196Z,100.00
2024-02-14T05:12:42.573Z,100.00
2024-02-14T05:15:10.750Z,100.00
2024-02-14T05:17:37.722Z,100.00
2024-02-14T05:20:10.318Z,100.00
2024-02-14T05:22:38.850Z,100.00
2024-02-14T05:25:06.154Z,100.00
2024-02-14T05:27:32.885Z,100.00
2024-02-14T05:29:59.611Z,100.00
2024-02-14T05:32:26.394Z,100.00
2024-02-14T05:34:53.125Z,100.00
2024-02-14T05:37:19.896Z,100.00
2024-02-14T05:39:46.634Z,100.00
2024-02-14T05:42:13.472Z,100.00
2024-02-14T05:44:41.628Z,100.00
2024-02-14T05:47:08.455Z,100.00
2024-02-14T05:49:35.318Z,100.00
2024-02-14T05:52:02.113Z,100.00
2024-02-14T05:54:28.855Z,100.00
2024-02-14T05:56:55.595Z,100.00
2024-02-14T05:59:22.413Z,100.00
2024-02-14T06:01:49.049Z,100.00
2024-02-14T06:04:15.826Z,100.00
2024-02-14T06:06:42.559Z,100.00
2024-02-14T06:09:12.718Z,100.00
2024-02-14T06:11:40.342Z,100.00
2024-02-14T06:14:07.894Z,100.00
2024-02-14T06:16:34.812Z,100.00
2024-02-14T06:19:02.147Z,100.00
2024-02-14T06:21:28.938Z,100.00
2024-02-14T06:23:56.060Z,100.00
2024-02-14T06:26:22.796Z,100.00
2024-02-14T06:28:55.343Z,100.00
2024-02-14T06:31:23.391Z,100.00
2024-02-14T06:33:50.309Z,100.00
2024-02-14T06:36:17.167Z,100.00
2024-02-14T06:38:44.609Z,100.00
2024-02-14T06:41:11.477Z,100.00
2024-02-14T06:43:40.270Z,100.00
2024-02-14T06:46:07.257Z,100.00
2024-02-14T06:48:35.309Z,100.00
2024-02-14T06:51:02.307Z,100.00
2024-02-14T06:53:29.206Z,100.00
2024-02-14T06:55:55.895Z,100.00
2024-02-14T06:58:22.772Z,100.00
2024-02-14T07:00:49.513Z,100.00
2024-02-14T07:03:16.482Z,100.00
2024-02-14T07:05:43.462Z,100.00
2024-02-14T07:08:10.374Z,100.00
2024-02-14T07:10:37.425Z,100.00
2024-02-14T07:13:04.454Z,100.00
2024-02-14T07:15:31.211Z,100.00
2024-02-14T07:17:59.711Z,100.00
2024-02-14T07:20:27.976Z,100.00
2024-02-14T07:22:54.755Z,100.00
2024-02-14T07:25:21.495Z,100.00
2024-02-14T07:27:50.596Z,100.00
2024-02-14T07:30:18.235Z,100.00
2024-02-14T07:32:48.136Z,100.00
2024-02-14T07:35:14.977Z,100.00
2024-02-14T07:37:43.458Z,100.00
2024-02-14T07:40:11.340Z,100.00
2024-02-14T07:42:38.038Z,100.00
2024-02-14T07:45:05.258Z,100.00
2024-02-14T07:47:32.165Z,100.00
2024-02-14T07:49:59.539Z,100.00
2024-02-14T07:52:27.166Z,99.49
2024-02-14T07:54:55.335Z,100.00
2024-02-14T07:57:23.556Z,99.71
2024-02-14T07:59:51.822Z,99.29
2024-02-14T08:02:19.181Z,98.21
2024-02-14T08:04:45.908Z,98.07
2024-02-14T08:07:12.700Z,98.43
2024-02-14T08:09:42.168Z,100.00
2024-02-14T08:12:08.937Z,100.00
2024-02-14T08:14:35.797Z,100.00
2024-02-14T08:17:02.627Z,100.00
2024-02-14T08:19:29.525Z,100.00
2024-02-14T08:21:59.125Z,100.00
2024-02-14T08:24:27.269Z,100.00
2024-02-14T08:26:54.500Z,100.00
2024-02-14T08:29:21.927Z,100.00
2024-02-14T08:31:49.111Z,100.00
2024-02-14T08:34:16.104Z,100.00
2024-02-14T08:36:43.652Z,100.00
2024-02-14T08:39:13.368Z,100.00
2024-02-14T08:41:42.273Z,100.00
2024-02-14T08:44:09.000Z,100.00
2024-02-14T08:46:35.699Z,100.00
2024-02-14T08:49:03.845Z,100.00
2024-02-14T08:51:30.844Z,100.00
2024-02-14T08:54:00.659Z,100.00
2024-02-14T08:56:27.675Z,100.00
2024-02-14T08:58:54.372Z,100.00
2024-02-14T09:01:23.078Z,100.00
2024-02-14T09:03:50.903Z,100.00
2024-02-14T09:06:21.120Z,100.00
2024-02-14T09:08:48.398Z,100.00
2024-02-14T09:11:15.252Z,100.00
2024-02-14T09:13:42.100Z,96.02
2024-02-14T09:16:09.627Z,100.00
2024-02-14T09:18:36.564Z,100.00
2024-02-14T09:21:06.559Z,100.00
2024-02-14T09:23:34.189Z,99.00
2024-02-14T09:26:00.970Z,98.98
2024-02-14T09:28:27.685Z,97.83
2024-02-14T09:30:55.939Z,96.34
2024-02-14T09:33:23.130Z,99.03
2024-02-14T09:35:51.566Z,97.14
2024-02-14T09:38:18.301Z,98.53
2024-02-14T09:40:45.128Z,98.56
2024-02-14T09:43:19.809Z,100.00
2024-02-14T09:45:46.429Z,100.00
2024-02-14T09:48:14.197Z,100.00
2024-02-14T09:50:41.544Z,100.00
2024-02-14T09:53:10.148Z,100.00
2024-02-14T09:55:39.732Z,100.00
2024-02-14T09:58:07.868Z,100.00
2024-02-14T10:00:34.762Z,100.00
2024-02-14T10:03:04.582Z,100.00
2024-02-14T10:05:31.306Z,100.00
2024-02-14T10:07:58.724Z,100.00
2024-02-14T10:10:26.341Z,100.00
2024-02-14T10:12:53.244Z,100.00
2024-02-14T10:15:20.060Z,100.00
2024-02-14T10:17:46.856Z,100.00
2024-02-14T10:20:18.126Z,100.00
2024-02-14T10:22:45.635Z,100.00
2024-02-14T10:25:12.960Z,100.00
2024-02-14T10:27:40.020Z,100.00
2024-02-14T10:30:10.982Z,100.00
2024-02-14T10:32:38.813Z,100.00
2024-02-14T10:35:10.238Z,100.00
2024-02-14T10:37:37.476Z,100.00
2024-02-14T10:40:05.350Z,100.00
2024-02-14T10:42:32.633Z,100.00
2024-02-14T10:45:00.397Z,100.00
2024-02-14T10:47:36.959Z,100.00
2024-02-14T10:50:06.430Z,100.00
2024-02-14T10:52:36.948Z,100.00
2024-02-14T10:55:06.891Z,100.00
2024-02-14T10:57:33.751Z,100.00
2024-02-14T11:00:06.265Z,100.00
2024-02-14T11:02:33.978Z,100.00
2024-02-14T11:05:01.792Z,100.00
2024-02-14T11:07:29.862Z,100.00
2024-02-14T11:10:10.954Z,100.00
2024-02-14T11:12:40.332Z,100.00
2024-02-14T11:15:36.191Z,100.00
2024-02-14T11:18:06.443Z,100.00
2024-02-14T11:20:34.389Z,100.00
2024-02-14T11:23:07.164Z,100.00
2024-02-14T11:25:37.897Z,100.00
2024-02-14T11:28:17.762Z,100.00
2024-02-14T11:30:45.143Z,100.00
2024-02-14T11:33:14.148Z,100.00
2024-02-14T11:35:44.059Z,100.00
2024-02-14T11:38:10.915Z,100.00
2024-02-14T11:40:40.349Z,100.00
2024-02-14T11:43:15.139Z,100.00
2024-02-14T11:45:46.550Z,100.00
2024-02-14T11:48:14.191Z,100.00
2024-02-14T11:50:42.251Z,100.00
2024-02-14T11:53:10.923Z,100.00
2024-02-14T11:55:40.758Z,100.00
2024-02-14T11:58:14.381Z,100.00
2024-02-14T12:00:41.840Z,100.00
2024-02-14T12:03:11.208Z,100.00
2024-02-14T12:05:38.394Z,100.00
2024-02-14T12:08:06.875Z,100.00
2024-02-14T12:10:33.932Z,100.00
2024-02-14T12:13:09.898Z,100.00
2024-02-14T12:15:40.721Z,100.00
2024-02-14T12:18:07.986Z,100.00
2024-02-14T12:20:35.242Z,100.00
2024-02-14T12:23:01.990Z,100.00
2024-02-14T12:25:28.765Z,100.00
2024-02-14T12:27:55.524Z,100.00
2024-02-14T12:30:23.191Z,100.00
2024-02-14T12:33:00.726Z,100.00
2024-02-14T12:35:27.748Z,100.00
2024-02-14T12:37:55.088Z,100.00
2024-02-14T12:40:21.910Z,100.00
2024-02-14T12:42:48.636Z,100.00
2024-02-14T12:45:16.591Z,100.00
2024-02-14T12:47:44.508Z,100.00
2024-02-14T12:50:11.477Z,100.00
2024-02-14T12:52:38.526Z,100.00
2024-02-14T12:55:05.783Z,100.00
2024-02-14T12:57:32.523Z,100.00
2024-02-14T12:59:59.336Z,100.00
2024-02-14T13:02:26.081Z,100.00
2024-02-14T13:04:52.921Z,100.00
2024-02-14T13:07:19.650Z,100.00
2024-02-14T13:09:46.792Z,100.00
2024-02-14T13:12:13.504Z,100.00
2024-02-14T13:14:41.206Z,100.00
2024-02-14T13:17:08.019Z,100.00
2024-02-14T13:19:35.068Z,100.00
2024-02-14T13:22:01.819Z,100.00
2024-02-14T13:24:29.600Z,100.00
2024-02-14T13:26:58.893Z,100.00
2024-02-14T13:29:27.585Z,100.00
2024-02-14T13:31:54.274Z,100.00
2024-02-14T13:34:21.516Z,100.00
2024-02-14T13:36:48.539Z,100.00
2024-02-14T13:39:15.809Z,100.00
2024-02-14T13:41:45.500Z,100.00
2024-02-14T13:44:12.854Z,100.00
2024-02-14T13:46:40.080Z,100.00
2024-02-14T13:49:07.484Z,100.00
2024-02-14T13:51:34.487Z,100.00
2024-02-14T13:54:01.334Z,100.00
2024-02-14T13:56:27.981Z,100.00
2024-02-14T13:58:54.733Z,100.00
2024-02-14T14:01:21.510Z,100.00
2024-02-14T14:03:49.620Z,100.00
2024-02-14T14:06:16.444Z,100.00
2024-02-14T14:08:43.122Z,100.00
2024-02-14T14:11:10.211Z,100.00
2024-02-14T14:13:36.927Z,100.00
2024-02-14T14:16:06.151Z,100.00
2024-02-14T14:18:33.212Z,100.00
2024-02-14T14:21:00.051Z,100.00
2024-02-14T14:23:26.768Z,100.00
2024-02-14T14:25:53.536Z,100.00
2024-02-14T14:28:25.640Z,100.00
2024-02-14T14:30:54.350Z,100.00
2024-02-14T14:33:21.853Z,100.00
2024-02-14T14:35:51.702Z,100.00
2024-02-14T14:38:18.508Z,100.00
2024-02-14T14:40:46.763Z,100.00
2024-02-14T14:43:13.988Z,100.00
2024-02-14T14:45:42.356Z,100.00
2024-02-14T14:48:10.230Z,100.00
2024-02-14T14:50:38.146Z,100.00
2024-02-14T14:53:07.113Z,100.00
2024-02-14T14:55:58.309Z,100.00
2024-02-14T14:58:28.504Z,100.00
2024-02-14T15:00:56.420Z,100.00
2024-02-14T15:03:23.767Z,100.00
2024-02-14T15:05:50.613Z,100.00
2024-02-14T15:08:24.648Z,100.00
2024-02-14T15:10:53.530Z,100.00
2024-02-14T15:13:20.677Z,100.00
2024-02-14T15:15:47.337Z,100.00
2024-02-14T15:18:14.336Z,100.00
2024-02-14T15:20:41.399Z,100.00
2024-02-14T15:23:08.720Z,100.00
2024-02-14T15:25:35.898Z,100.00
2024-02-14T15:28:10.500Z,100.00
2024-02-14T15:30:55.806Z,100.00
2024-02-14T15:33:24.082Z,100.00
2024-02-14T15:35:52.102Z,100.00
2024-02-14T15:38:22.375Z,100.00
2024-02-14T15:40:51.724Z,100.00
2024-02-14T15:43:18.457Z,100.00
2024-02-14T15:45:45.121Z,99.07
2024-02-14T15:48:14.190Z,100.00
2024-02-14T15:50:40.932Z,100.00
2024-02-14T15:53:07.764Z,100.00
2024-02-14T15:55:34.479Z,100.00
2024-02-14T15:58:01.158Z,100.00
2024-02-14T16:00:28.204Z,100.00
2024-02-14T16:02:55.016Z,100.00
2024-02-14T16:05:24.562Z,100.00
2024-02-14T16:07:51.273Z,100.00
2024-02-14T16:10:18.001Z,100.00
2024-02-14T16:12:45.552Z,100.00
2024-02-14T16:15:12.799Z,100.00
2024-02-14T16:17:42.667Z,100.00
2024-02-14T16:20:10.053Z,100.00
2024-02-14T16:22:37.025Z,100.00
2024-02-14T16:25:04.460Z,100.00
2024-02-14T16:27:31.546Z,100.00
2024-02-14T16:30:02.214Z,100.00
2024-02-14T16:32:29.077Z,100.00
2024-02-14T16:34:55.888Z,100.00
2024-02-14T16:37:23.023Z,100.00
2024-02-14T16:39:50.276Z,100.00
2024-02-14T16:42:17.873Z,100.00
2024-02-14T16:44:45.094Z,100.00
2024-02-14T16:47:12.310Z,100.00
2024-02-14T16:49:39.210Z,100.00
2024-02-14T16:52:09.010Z,100.00
2024-02-14T16:54:35.823Z,100.00
2024-02-14T16:57:15.871Z,98.51
2024-02-14T16:59:46.997Z,97.32
2024-02-14T17:02:16.916Z,98.75
2024-02-14T17:04:44.065Z,97.97
2024-02-14T17:07:16.559Z,99.87
2024-02-14T17:09:43.982Z,98.63
2024-02-14T17:12:11.062Z,99.24
2024-02-14T17:14:40.860Z,99.93
2024-02-14T17:17:09.738Z,100.00
2024-02-14T17:19:36.526Z,99.57
2024-02-14T17:22:13.448Z,97.78
2024-02-14T17:24:46.545Z,96.69
2024-02-14T17:27:13.706Z,93.69
2024-02-14T17:29:40.463Z,97.32
2024-02-14T17:32:12.416Z,96.72
2024-02-14T17:34:43.901Z,98.46
2024-02-14T17:37:10.742Z,98.99
2024-02-14T17:39:37.583Z,99.35
2024-02-14T17:42:04.484Z,100.00
2024-02-14T17:44:31.181Z,100.00
2024-02-14T17:46:57.941Z,99.36
2024-02-14T17:49:24.982Z,100.00
2024-02-14T17:51:53.056Z,99.88
2024-02-14T17:54:20.468Z,100.00
2024-02-14T17:56:47.274Z,100.00
2024-02-14T17:59:15.555Z,100.00
2024-02-14T18:01:45.793Z,99.24
2024-02-14T18:04:12.649Z,98.99
2024-02-14T18:06:39.432Z,97.96
2024-02-14T18:09:08.362Z,96.77
2024-02-14T18:11:35.754Z,95.47
2024-02-14T18:14:02.421Z,95.42
2024-02-14T18:16:29.216Z,95.96
2024-02-14T18:18:56.320Z,96.93
2024-02-14T18:21:23.316Z,98.12
2024-02-14T18:23:51.271Z,97.00
2024-02-14T18:26:18.272Z,97.67
2024-02-14T18:28:45.111Z,97.85
2024-02-14T18:31:14.386Z,99.26
2024-02-14T18:33:42.678Z,98.19
2024-02-14T18:36:09.833Z,97.65
2024-02-14T18:38:37.406Z,96.57
2024-02-14T18:41:04.227Z,93.43
2024-02-14T18:43:32.668Z,93.15
2024-02-14T18:45:59.389Z,93.37
2024-02-14T18:48:26.185Z,94.31
2024-02-14T18:50:53.520Z,94.62
2024-02-14T18:53:20.402Z,93.95
2024-02-14T18:55:47.043Z,94.81
2024-02-14T18:58:13.764Z,96.46
2024-02-14T19:00:41.018Z,97.15
2024-02-14T19:03:07.889Z,96.48
2024-02-14T19:05:34.660Z,95.85
2024-02-14T19:08:01.336Z,94.71
2024-02-14T19:10:28.092Z,95.44
2024-02-14T19:12:54.865Z,96.83
2024-02-14T19:15:21.862Z,96.86
2024-02-14T19:17:49.726Z,97.57
2024-02-14T19:20:16.772Z,96.43
2024-02-14T19:22:43.697Z,98.96
2024-02-14T19:25:10.465Z,100.00
2024-02-14T19:27:38.449Z,100.00
2024-02-14T19:30:05.934Z,100.00
2024-02-14T19:32:37.139Z,100.00
2024-02-14T19:35:04.570Z,100.00
2024-02-14T19:37:32.492Z,97.77
2024-02-14T19:39:59.205Z,98.57
2024-02-14T19:42:26.026Z,98.35
2024-02-14T19:44:53.616Z,98.95
2024-02-14T19:47:20.477Z,99.20
2024-02-14T19:49:47.770Z,99.06
2024-02-14T19:52:14.637Z,99.84
2024-02-14T19:54:41.654Z,99.84
2024-02-14T19:57:09.429Z,100.00
2024-02-14T19:59:36.167Z,100.00
2024-02-14T20:02:04.978Z,97.88
2024-02-14T20:04:32.991Z,95.54
2024-02-14T20:07:00.033Z,96.29
2024-02-14T20:09:26.880Z,94.88
2024-02-14T20:11:53.712Z,92.93
2024-02-14T20:14:20.862Z,94.32
2024-02-14T20:16:47.804Z,94.58
2024-02-14T20:19:54.724Z,95.17
2024-02-14T20:22:22.315Z,95.11
2024-02-14T20:24:49.034Z,93.01
2024-02-14T20:27:16.382Z,92.92
2024-02-14T20:29:44.446Z,93.26
2024-02-14T20:32:11.184Z,94.82
2024-02-14T20:34:38.250Z,93.58
2024-02-14T20:37:09.518Z,95.31
2024-02-14T20:39:36.533Z,97.23
2024-02-14T20:42:03.292Z,98.16
2024-02-14T20:44:30.096Z,97.47
2024-02-14T20:46:57.684Z,98.11
2024-02-14T20:49:24.774Z,97.92
2024-02-14T20:51:51.617Z,97.88
2024-02-14T20:54:18.470Z,96.54
2024-02-14T20:56:45.187Z,97.91
2024-02-14T20:59:16.625Z,97.20
2024-02-14T21:01:43.881Z,98.86
2024-02-14T21:04:10.561Z,100.00
2024-02-14T21:06:38.165Z,98.34
2024-02-14T21:09:05.249Z,97.69
2024-02-14T21:11:32.511Z,96.84
2024-02-14T21:13:59.175Z,98.35
2024-02-14T21:16:27.249Z,100.00
2024-02-14T21:18:54.458Z,100.00
2024-02-14T21:21:21.680Z,100.00
2024-02-14T21:23:48.451Z,99.96
2024-02-14T21:26:15.215Z,98.12
2024-02-14T21:28:42.025Z,88.05
2024-02-14T21:31:08.678Z,84.93
2024-02-14T21:33:35.675Z,90.14
2024-02-14T21:36:02.492Z,91.63
2024-02-14T21:38:29.253Z,95.46
2024-02-14T21:40:56.156Z,97.77
2024-02-14T21:43:23.035Z,97.10
2024-02-14T21:45:49.762Z,95.99
2024-02-14T21:48:19.548Z,97.90
2024-02-14T21:50:46.540Z,99.40
2024-02-14T21:53:13.337Z,100.00
2024-02-14T21:55:40.138Z,98.97
2024-02-14T21:58:07.175Z,98.68
2024-02-14T22:00:34.123Z,100.00
2024-02-14T22:03:01.159Z,100.00
2024-02-14T22:05:29.295Z,99.11
2024-02-14T22:07:56.503Z,99.39
2024-02-14T22:10:23.460Z,99.72
2024-02-14T22:12:50.326Z,99.32
2024-02-14T22:15:17.100Z,99.40
2024-02-14T22:17:43.893Z,99.97
2024-02-14T22:20:11.840Z,100.00
2024-02-14T22:22:42.041Z,100.00
2024-02-14T22:25:09.348Z,99.87
2024-02-14T22:27:36.297Z,99.77
2024-02-14T22:30:06.485Z,100.00
2024-02-14T22:32:34.140Z,100.00
2024-02-14T22:35:00.988Z,100.00
2024-02-14T22:37:27.811Z,100.00
2024-02-14T22:39:54.466Z,100.00
2024-02-14T22:42:21.281Z,99.44
2024-02-14T22:44:48.018Z,99.26
2024-02-14T22:47:14.726Z,100.00
2024-02-14T22:49:42.537Z,100.00
2024-02-14T22:52:09.351Z,100.00
2024-02-14T22:54:36.169Z,100.00
2024-02-14T22:57:04.295Z,100.00
2024-02-14T22:59:31.276Z,100.00
2024-02-14T23:01:57.993Z,100.00
2024-02-14T23:04:24.783Z,100.00
2024-02-14T23:06:51.780Z,100.00
2024-02-14T23:09:18.683Z,100.00
2024-02-14T23:11:45.357Z,100.00
2024-02-14T23:14:12.137Z,100.00
2024-02-14T23:16:39.043Z,100.00
2024-02-14T23:19:06.244Z,100.00
2024-02-14T23:21:33.155Z,100.00
2024-02-14T23:23:59.909Z,100.00
2024-02-14T23:26:26.657Z,100.00
2024-02-14T23:28:53.367Z,100.00
2024-02-14T23:31:21.772Z,100.00
2024-02-14T23:33:48.976Z,100.00
2024-02-14T23:36:16.789Z,100.00
2024-02-14T23:38:46.653Z,100.00
2024-02-14T23:41:13.464Z,100.00
2024-02-14T23:43:40.366Z,100.00
2024-02-14T23:46:07.292Z,100.00
2024-02-14T23:48:34.779Z,100.00
2024-02-14T23:51:01.858Z,99.94
2024-02-14T23:53:28.805Z,100.00
2024-02-14T23:55:57.770Z,100.00
2024-02-14T23:58:25.651Z,99.76
